Time;durP1;ratioP1;P1;durP2;ratioP2;P2;SDS_P1;SDS_P2;PMS_P1;PMS_P2;Temp;Humidity;BMP_temperature;BMP_pressure;BME280_temperature;BME280_humidity;BME280_pressure;Samples;Min_cycle;Max_cycle;Signal;HPM_P1;HPM_P2
2021/04/09 00:01:44;;;;;;;16.27;7.63;;;0.00;78.70;;;;;;5054285;28;20211;-57
2021/04/09 00:04:13;;;;;;;11.53;6.60;;;0.00;78.40;;;;;;5042002;28;20671;-57
2021/04/09 00:06:38;;;;;;;14.30;7.10;;;-0.10;78.20;;;;;;5046842;28;20427;-57
2021/04/09 00:09:06;;;;;;;17.80;7.73;;;-0.10;78.70;;;;;;5045628;28;20998;-57
2021/04/09 00:11:32;;;;;;;13.03;6.80;;;-0.10;78.90;;;;;;5042197;28;20443;-57
2021/04/09 00:13:58;;;;;;;13.47;6.97;;;-0.10;79.40;;;;;;5043017;28;20453;-57
2021/04/09 00:16:23;;;;;;;10.90;6.63;;;-0.10;79.60;;;;;;5034970;28;20466;-58
2021/04/09 00:18:49;;;;;;;16.27;6.43;;;-0.10;79.30;;;;;;5039839;28;20183;-58
2021/04/09 00:21:15;;;;;;;10.00;6.43;;;-0.10;79.20;;;;;;5043332;28;20200;-58
2021/04/09 00:23:40;;;;;;;14.90;6.43;;;-0.20;79.60;;;;;;5050432;28;20238;-57
2021/04/09 00:26:06;;;;;;;8.13;6.30;;;-0.20;79.40;;;;;;5039992;28;20229;-58
2021/04/09 00:28:32;;;;;;;11.07;6.30;;;-0.20;79.30;;;;;;5044848;28;20169;-57
2021/04/09 00:30:58;;;;;;;12.00;5.93;;;-0.20;79.30;;;;;;5046969;28;20235;-57
2021/04/09 00:33:24;;;;;;;10.10;6.63;;;-0.20;79.60;;;;;;5048162;28;20183;-57
2021/04/09 00:35:50;;;;;;;8.23;5.80;;;-0.20;79.80;;;;;;5048583;28;20423;-58
2021/04/09 00:38:15;;;;;;;10.83;5.97;;;-0.20;80.60;;;;;;5044420;28;20184;-57
2021/04/09 00:40:41;;;;;;;7.40;6.10;;;-0.20;80.90;;;;;;5054248;28;20849;-58
2021/04/09 00:43:08;;;;;;;15.90;6.77;;;-0.20;80.70;;;;;;5047301;28;20197;-57
2021/04/09 00:45:35;;;;;;;10.93;6.30;;;-0.20;80.30;;;;;;5043427;28;20414;-57
2021/04/09 00:48:01;;;;;;;10.83;6.90;;;-0.30;80.50;;;;;;5025888;28;20426;-57
2021/04/09 00:50:27;;;;;;;9.77;6.87;;;-0.30;80.90;;;;;;5047834;28;20997;-58
2021/04/09 00:52:54;;;;;;;8.73;5.70;;;-0.30;81.00;;;;;;5044601;28;21835;-57
2021/04/09 00:55:21;;;;;;;13.23;6.30;;;-0.30;81.20;;;;;;5045659;28;20439;-57
2021/04/09 00:57:50;;;;;;;8.10;5.70;;;-0.30;81.20;;;;;;5045834;28;20426;-57
2021/04/09 01:00:16;;;;;;;11.53;5.37;;;-0.40;81.30;;;;;;5046619;28;20770;-57
2021/04/09 01:02:43;;;;;;;11.63;6.40;;;-0.40;81.50;;;;;;5047726;28;20537;-56
2021/04/09 01:05:13;;;;;;;12.50;6.57;;;-0.40;82.10;;;;;;5036498;28;20434;-56
2021/04/09 01:07:39;;;;;;;9.40;6.10;;;-0.40;82.40;;;;;;5040627;28;20439;-56
2021/04/09 01:10:07;;;;;;;10.73;5.40;;;-0.40;81.80;;;;;;5049688;28;20777;-56
2021/04/09 01:12:33;;;;;;;9.50;5.90;;;-0.40;82.10;;;;;;5051917;28;20479;-57
2021/04/09 01:14:59;;;;;;;11.67;6.40;;;-0.40;82.10;;;;;;5044329;28;20477;-57
2021/04/09 01:17:34;;;;;;;11.17;6.30;;;-0.50;81.80;;;;;;5048901;28;20437;-57
2021/04/09 01:20:24;;;;;;;8.90;5.53;;;-0.50;82.10;;;;;;5042527;28;20421;-57
2021/04/09 01:23:24;;;;;;;10.73;6.10;;;-0.50;82.40;;;;;;5044890;28;20451;-57
2021/04/09 01:26:34;;;;;;;11.43;6.67;;;-0.50;82.90;;;;;;5039862;28;21082;-56
2021/04/09 01:29:52;;;;;;;19.03;6.33;;;-0.60;83.50;;;;;;5044883;28;20461;-56
2021/04/09 01:32:19;;;;;;;7.80;5.10;;;-0.60;83.70;;;;;;5024347;28;20450;-57
2021/04/09 01:34:47;;;;;;;13.20;6.03;;;-0.70;84.50;;;;;;5043443;28;20536;-57
2021/04/09 01:37:16;;;;;;;9.80;6.00;;;-0.70;84.50;;;;;;5052038;28;20416;-57
2021/04/09 01:39:50;;;;;;;11.73;6.63;;;-0.80;85.40;;;;;;5045623;28;20928;-56
2021/04/09 01:42:18;;;;;;;13.57;6.60;;;-0.80;85.70;;;;;;5047704;28;20558;-56
2021/04/09 01:44:48;;;;;;;8.63;6.27;;;-0.80;85.80;;;;;;5043915;28;20801;-56
2021/04/09 01:47:14;;;;;;;9.60;6.30;;;-0.80;85.40;;;;;;5046252;28;20425;-57
2021/04/09 01:49:41;;;;;;;9.07;5.93;;;-0.80;85.10;;;;;;5047510;28;20501;-56
2021/04/09 01:52:10;;;;;;;10.10;5.40;;;-0.80;85.60;;;;;;5049808;28;20438;-57
2021/04/09 01:54:38;;;;;;;10.17;5.83;;;-0.80;85.20;;;;;;5052295;28;20835;-57
2021/04/09 01:57:08;;;;;;;15.50;6.30;;;-0.90;85.60;;;;;;5049381;28;20439;-57
2021/04/09 01:59:37;;;;;;;7.77;5.40;;;-0.90;86.10;;;;;;5048685;28;21075;-56
2021/04/09 02:02:03;;;;;;;10.37;5.87;;;-0.90;85.90;;;;;;5051259;28;20509;-57
2021/04/09 02:04:31;;;;;;;12.23;7.33;;;-0.90;86.00;;;;;;5055670;28;20407;-57
2021/04/09 02:06:58;;;;;;;13.40;7.20;;;-1.00;86.20;;;;;;5050919;28;20780;-57
2021/04/09 02:09:25;;;;;;;13.13;7.83;;;-1.00;86.40;;;;;;5050134;28;20426;-56
2021/04/09 02:11:54;;;;;;;19.53;7.63;;;-1.00;86.70;;;;;;5050800;28;20521;-56
2021/04/09 02:14:21;;;;;;;12.40;6.97;;;-1.00;86.90;;;;;;5049435;28;20431;-56
2021/04/09 02:16:47;;;;;;;10.47;6.17;;;-1.10;87.30;;;;;;5048264;28;20426;-57
2021/04/09 02:19:13;;;;;;;14.87;6.40;;;-1.00;87.20;;;;;;5050555;28;20458;-57
2021/04/09 02:21:39;;;;;;;9.03;5.90;;;-1.00;87.00;;;;;;5049188;28;20289;-57
2021/04/09 02:24:07;;;;;;;11.87;6.23;;;-1.10;86.80;;;;;;5049626;28;20467;-56
2021/04/09 02:26:35;;;;;;;9.30;5.90;;;-1.10;86.90;;;;;;5048063;28;20288;-57
2021/04/09 02:29:04;;;;;;;8.67;5.90;;;-1.10;87.00;;;;;;5048756;28;21025;-57
2021/04/09 02:31:29;;;;;;;10.03;5.90;;;-1.10;87.00;;;;;;5049601;28;21008;-57
2021/04/09 02:33:55;;;;;;;7.50;5.00;;;-1.10;87.50;;;;;;5044848;28;20515;-57
2021/04/09 02:36:23;;;;;;;12.60;6.27;;;-1.10;88.10;;;;;;5048948;28;20255;-56
2021/04/09 02:38:52;;;;;;;7.47;5.63;;;-1.10;88.00;;;;;;5048849;28;20210;-57
2021/04/09 02:41:20;;;;;;;7.53;5.43;;;-1.20;87.90;;;;;;5049862;28;20468;-57
2021/04/09 02:43:46;;;;;;;10.03;6.20;;;-1.20;88.10;;;;;;5060872;28;20457;-57
2021/04/09 02:46:37;;;;;;;15.30;6.90;;;-1.20;88.10;;;;;;5046532;28;20527;-57
2021/04/09 02:49:18;;;;;;;10.47;6.00;;;-1.20;88.20;;;;;;5056757;28;20795;-57
2021/04/09 02:51:45;;;;;;;13.10;5.07;;;-1.20;88.60;;;;;;5045265;28;20827;-57
2021/04/09 02:54:15;;;;;;;10.37;5.70;;;-1.20;89.00;;;;;;5058731;28;20518;-57
2021/04/09 02:56:42;;;;;;;11.80;5.10;;;-1.20;89.60;;;;;;5045556;28;20440;-57
2021/04/09 02:59:14;;;;;;;8.07;5.00;;;-1.20;89.20;;;;;;5061487;28;20509;-57
2021/04/09 03:01:43;;;;;;;9.90;5.80;;;-1.20;89.20;;;;;;5059670;28;20485;-57
2021/04/09 03:04:10;;;;;;;9.77;5.70;;;-1.20;89.10;;;;;;5062863;28;20828;-57
2021/04/09 03:06:42;;;;;;;9.00;5.27;;;-1.20;89.20;;;;;;5066031;28;20517;-57
2021/04/09 03:09:09;;;;;;;9.33;5.77;;;-1.20;89.40;;;;;;5050062;28;20479;-57
2021/04/09 03:11:35;;;;;;;12.53;6.10;;;-1.20;89.30;;;;;;5046799;28;21012;-56
2021/04/09 03:14:02;;;;;;;10.10;5.20;;;-1.20;89.20;;;;;;5049888;28;20402;-57
2021/04/09 03:16:48;;;;;;;11.30;5.10;;;-1.20;89.20;;;;;;5048629;28;20437;-56
2021/04/09 03:19:14;;;;;;;11.20;5.70;;;-1.20;89.30;;;;;;5022823;28;20401;-56
2021/04/09 03:21:40;;;;;;;9.13;5.73;;;-1.30;89.20;;;;;;5038997;28;20445;-56
2021/04/09 03:24:07;;;;;;;29.47;6.00;;;-1.30;89.20;;;;;;5045010;28;20575;-56
2021/04/09 03:26:33;;;;;;;6.73;4.90;;;-1.30;89.10;;;;;;5055796;28;20172;-57
2021/04/09 03:28:58;;;;;;;11.30;6.10;;;-1.30;89.10;;;;;;5047171;28;20432;-56
2021/04/09 03:31:24;;;;;;;9.40;5.77;;;-1.40;89.10;;;;;;5062003;28;20496;-56
2021/04/09 03:33:50;;;;;;;8.37;6.80;;;-1.40;89.40;;;;;;5047903;28;20414;-57
2021/04/09 03:36:16;;;;;;;7.37;5.57;;;-1.40;89.70;;;;;;5046549;28;20211;-57
2021/04/09 03:38:41;;;;;;;16.27;5.90;;;-1.40;90.00;;;;;;5048488;28;20558;-56
2021/04/09 03:41:07;;;;;;;13.13;5.67;;;-1.40;90.10;;;;;;5041370;28;20443;-56
2021/04/09 03:43:33;;;;;;;9.90;6.17;;;-1.50;90.20;;;;;;5047528;28;20558;-57
2021/04/09 03:45:59;;;;;;;9.10;5.97;;;-1.50;90.30;;;;;;5046784;28;20263;-56
2021/04/09 03:48:24;;;;;;;8.97;5.93;;;-1.50;90.20;;;;;;5049825;28;20174;-57
2021/04/09 03:50:50;;;;;;;12.60;5.57;;;-1.50;90.30;;;;;;5050323;28;20573;-56
2021/04/09 03:53:16;;;;;;;16.47;6.30;;;-1.50;90.30;;;;;;5032212;28;20179;-56
2021/04/09 03:55:42;;;;;;;8.53;5.53;;;-1.50;90.40;;;;;;5063593;28;20182;-56
2021/04/09 03:58:08;;;;;;;7.77;5.50;;;-1.50;90.50;;;;;;5048663;28;20223;-56
2021/04/09 04:00:34;;;;;;;12.10;5.90;;;-1.50;90.50;;;;;;5043184;28;20203;-57
2021/04/09 04:02:59;;;;;;;9.73;5.53;;;-1.50;90.50;;;;;;5041274;28;20455;-56
2021/04/09 04:05:25;;;;;;;12.50;7.60;;;-1.50;90.50;;;;;;5050292;28;20172;-57
2021/04/09 04:07:51;;;;;;;12.93;7.40;;;-1.60;90.40;;;;;;5049533;28;20180;-57
2021/04/09 04:10:19;;;;;;;14.00;6.80;;;-1.60;90.50;;;;;;5046306;28;20249;-57
2021/04/09 04:12:45;;;;;;;15.77;6.70;;;-1.60;90.60;;;;;;5039988;28;20435;-57
2021/04/09 04:15:11;;;;;;;17.93;9.40;;;-1.60;90.70;;;;;;5045293;28;20494;-57
2021/04/09 04:17:37;;;;;;;20.03;7.77;;;-1.60;90.80;;;;;;5047329;28;20577;-57
2021/04/09 04:20:03;;;;;;;16.00;8.03;;;-1.60;90.70;;;;;;5048566;28;20968;-57
2021/04/09 04:22:29;;;;;;;12.93;7.00;;;-1.60;90.90;;;;;;5047037;28;20247;-56
2021/04/09 04:24:55;;;;;;;25.93;9.80;;;-1.70;91.00;;;;;;5048817;28;20875;-57
2021/04/09 04:27:21;;;;;;;15.23;7.87;;;-1.70;90.90;;;;;;5045429;28;20168;-57
2021/04/09 04:29:47;;;;;;;15.90;8.70;;;-1.70;91.00;;;;;;5042043;28;20171;-57
2021/04/09 04:32:13;;;;;;;14.53;7.27;;;-1.70;90.90;;;;;;5045844;28;20506;-57
2021/04/09 04:34:38;;;;;;;11.67;6.70;;;-1.70;90.80;;;;;;5048497;28;20474;-57
2021/04/09 04:37:04;;;;;;;14.67;7.67;;;-1.70;91.00;;;;;;5025910;28;20200;-56
2021/04/09 04:39:30;;;;;;;15.00;7.40;;;-1.70;91.20;;;;;;5044811;28;20172;-56
2021/04/09 04:41:56;;;;;;;13.77;7.17;;;-1.70;91.20;;;;;;5045869;28;20380;-56
2021/04/09 04:44:22;;;;;;;10.33;6.40;;;-1.70;91.30;;;;;;5046129;28;20419;-56
2021/04/09 04:46:47;;;;;;;14.27;7.00;;;-1.70;91.30;;;;;;5040715;28;20170;-56
2021/04/09 04:49:13;;;;;;;11.93;7.80;;;-1.70;91.30;;;;;;5044410;28;20592;-57
2021/04/09 04:51:39;;;;;;;15.23;7.90;;;-1.70;91.40;;;;;;5038625;28;20196;-59
2021/04/09 04:54:04;;;;;;;15.63;8.30;;;-1.60;91.40;;;;;;5043903;28;20172;-59
2021/04/09 04:56:30;;;;;;;14.13;8.43;;;-1.60;91.40;;;;;;5041563;28;20197;-59
2021/04/09 04:58:56;;;;;;;15.90;7.70;;;-1.60;91.40;;;;;;5044365;28;20645;-60
2021/04/09 05:01:22;;;;;;;12.50;7.60;;;-1.60;91.70;;;;;;5043507;28;20192;-59
2021/04/09 05:03:48;;;;;;;12.27;7.10;;;-1.50;91.50;;;;;;5047633;28;20203;-59
2021/04/09 05:06:14;;;;;;;11.80;6.67;;;-1.50;91.40;;;;;;5046553;28;20438;-60
2021/04/09 05:08:40;;;;;;;9.60;6.00;;;-1.50;91.40;;;;;;5038845;28;20703;-59
2021/04/09 05:11:07;;;;;;;9.30;5.80;;;-1.50;91.60;;;;;;5042177;28;20470;-59
2021/04/09 05:13:33;;;;;;;11.87;6.90;;;-1.50;91.60;;;;;;5044736;28;20173;-59
2021/04/09 05:15:58;;;;;;;14.90;7.20;;;-1.50;91.80;;;;;;5041763;28;20433;-59
2021/04/09 05:18:24;;;;;;;15.00;6.60;;;-1.40;91.70;;;;;;5042590;28;20272;-60
2021/04/09 05:20:49;;;;;;;18.13;5.90;;;-1.30;92.00;;;;;;5047840;28;20195;-60
2021/04/09 05:23:15;;;;;;;13.63;6.20;;;-1.30;92.00;;;;;;5042474;28;20678;-57
2021/04/09 05:25:41;;;;;;;11.10;6.90;;;-1.30;91.70;;;;;;5021974;28;20201;-60
2021/04/09 05:28:07;;;;;;;10.87;7.13;;;-1.20;91.60;;;;;;5045369;28;20326;-60
2021/04/09 05:30:33;;;;;;;11.60;6.33;;;-1.20;91.50;;;;;;5033332;28;20252;-60
2021/04/09 05:32:58;;;;;;;9.10;6.20;;;-1.10;91.40;;;;;;5042543;28;20235;-60
2021/04/09 05:35:25;;;;;;;14.77;7.30;;;-1.00;91.50;;;;;;5033818;28;20192;-59
2021/04/09 05:37:51;;;;;;;16.03;7.67;;;-0.90;91.20;;;;;;5037708;28;20176;-60
2021/04/09 05:40:18;;;;;;;16.60;7.00;;;-0.90;91.10;;;;;;5037694;28;20447;-60
2021/04/09 05:42:45;;;;;;;20.00;7.93;;;-0.80;91.10;;;;;;5036812;28;20863;-60
2021/04/09 05:45:11;;;;;;;12.00;6.73;;;-0.80;91.30;;;;;;5034930;28;20574;-57
2021/04/09 05:47:37;;;;;;;11.33;7.10;;;-0.70;91.30;;;;;;5041256;28;20438;-57
2021/04/09 05:50:04;;;;;;;11.80;6.13;;;-0.70;91.40;;;;;;5040085;28;20437;-55
2021/04/09 05:52:30;;;;;;;10.57;7.37;;;-0.60;91.40;;;;;;5040760;28;20498;-63
2021/04/09 05:54:56;;;;;;;9.30;6.10;;;-0.60;91.80;;;;;;5039382;28;20963;-60
2021/04/09 05:57:21;;;;;;;10.37;7.20;;;-0.50;91.90;;;;;;5037724;28;21350;-60
2021/04/09 05:59:47;;;;;;;11.57;7.47;;;-0.50;91.50;;;;;;5035543;28;20219;-60
2021/04/09 06:02:13;;;;;;;15.63;6.73;;;-0.40;91.30;;;;;;5016332;28;20215;-60
2021/04/09 06:04:39;;;;;;;12.60;7.00;;;-0.30;91.00;;;;;;5037042;28;20461;-60
2021/04/09 06:07:05;;;;;;;9.43;6.63;;;-0.20;90.70;;;;;;5031544;28;20441;-60
2021/04/09 06:09:31;;;;;;;10.83;6.83;;;-0.10;90.90;;;;;;5058142;28;20432;-60
2021/04/09 06:11:58;;;;;;;12.27;6.27;;;0.00;90.70;;;;;;5051982;28;20201;-61
2021/04/09 06:14:25;;;;;;;7.87;5.80;;;0.00;90.60;;;;;;5057405;28;20187;-60
2021/04/09 06:16:51;;;;;;;9.53;6.10;;;0.10;90.30;;;;;;5043839;28;20427;-59
2021/04/09 06:19:17;;;;;;;8.40;5.93;;;0.20;90.70;;;;;;5046413;28;20842;-59
2021/04/09 06:21:43;;;;;;;14.03;7.13;;;0.20;90.70;;;;;;5046596;28;20463;-59
2021/04/09 06:24:09;;;;;;;7.17;5.23;;;0.20;91.30;;;;;;5045624;28;20442;-59
2021/04/09 06:26:36;;;;;;;9.90;6.10;;;0.30;90.90;;;;;;5045922;28;20184;-60
2021/04/09 06:29:01;;;;;;;12.80;5.77;;;0.30;90.80;;;;;;5047702;28;20514;-59
2021/04/09 06:31:27;;;;;;;9.60;5.27;;;0.40;90.60;;;;;;5047882;28;20452;-59
2021/04/09 06:33:53;;;;;;;9.77;5.77;;;0.50;90.60;;;;;;5040890;28;20215;-59
2021/04/09 06:36:19;;;;;;;7.97;5.50;;;0.50;90.50;;;;;;5041500;28;20189;-59
2021/04/09 06:38:44;;;;;;;8.70;5.17;;;0.60;90.70;;;;;;5040183;28;20192;-58
2021/04/09 06:41:10;;;;;;;8.57;5.80;;;0.60;90.60;;;;;;5042757;28;22012;-58
2021/04/09 06:43:39;;;;;;;12.27;5.40;;;0.70;90.60;;;;;;5040440;28;20298;-60
2021/04/09 06:46:05;;;;;;;7.17;5.30;;;0.80;90.40;;;;;;5038038;28;20223;-60
2021/04/09 06:48:31;;;;;;;7.00;4.60;;;0.80;90.20;;;;;;5040364;28;20428;-58
2021/04/09 06:50:57;;;;;;;7.47;5.00;;;0.90;89.90;;;;;;5041000;28;20447;-59
2021/04/09 06:53:24;;;;;;;9.67;5.60;;;1.00;89.70;;;;;;5041505;28;20213;-59
2021/04/09 06:55:51;;;;;;;11.53;5.13;;;1.00;89.40;;;;;;5050788;28;20411;-59
2021/04/09 06:58:23;;;;;;;7.87;5.10;;;1.10;90.30;;;;;;5039841;28;20419;-60
2021/04/09 07:00:58;;;;;;;6.60;5.20;;;1.30;90.40;;;;;;5039517;28;20520;-60
2021/04/09 07:03:23;;;;;;;13.43;5.90;;;1.50;89.40;;;;;;5041517;28;20461;-60
2021/04/09 07:05:49;;;;;;;20.93;5.90;;;1.70;88.60;;;;;;5041700;28;20439;-61
2021/04/09 07:08:15;;;;;;;10.00;6.00;;;1.80;87.80;;;;;;5039893;28;20577;-61
2021/04/09 07:10:43;;;;;;;10.30;5.90;;;1.90;87.20;;;;;;5036887;28;20889;-60
2021/04/09 07:13:10;;;;;;;10.90;6.13;;;2.00;86.90;;;;;;5035343;28;20441;-59
2021/04/09 07:15:41;;;;;;;9.50;6.33;;;2.10;86.90;;;;;;5042832;28;20526;-60
2021/04/09 07:18:09;;;;;;;19.27;7.40;;;2.20;86.60;;;;;;5034073;28;20436;-59
2021/04/09 07:20:36;;;;;;;13.30;8.73;;;2.20;86.40;;;;;;5035394;28;20453;-60
2021/04/09 07:23:05;;;;;;;12.97;7.47;;;2.20;86.30;;;;;;5037139;28;20993;-60
2021/04/09 07:25:37;;;;;;;14.73;8.77;;;2.30;86.80;;;;;;5041765;28;20427;-60
2021/04/09 07:28:17;;;;;;;12.70;8.23;;;2.40;87.10;;;;;;5044681;28;20523;-60
2021/04/09 07:30:56;;;;;;;15.50;7.70;;;2.50;87.20;;;;;;5043595;28;20546;-60
2021/04/09 07:33:24;;;;;;;11.57;6.90;;;2.60;87.40;;;;;;5057440;28;20487;-60
2021/04/09 07:36:01;;;;;;;11.60;7.17;;;2.80;86.70;;;;;;5042328;28;20476;-60
2021/04/09 07:38:28;;;;;;;12.37;7.20;;;2.90;86.00;;;;;;5042322;28;20901;-61
2021/04/09 07:41:02;;;;;;;14.90;7.43;;;3.00;86.50;;;;;;5046493;28;20459;-61
2021/04/09 07:43:32;;;;;;;13.30;7.03;;;3.10;85.80;;;;;;5040256;28;20545;-61
2021/04/09 07:46:00;;;;;;;15.20;7.07;;;3.30;84.70;;;;;;5030712;28;20531;-60
2021/04/09 07:48:36;;;;;;;15.80;7.93;;;3.40;84.80;;;;;;5038554;28;20510;-60
2021/04/09 07:51:03;;;;;;;12.67;7.43;;;3.60;84.70;;;;;;5037006;28;20439;-60
2021/04/09 07:53:29;;;;;;;19.30;7.43;;;3.80;84.10;;;;;;5034624;28;21000;-61
2021/04/09 07:56:06;;;;;;;13.40;7.57;;;3.90;83.10;;;;;;5038708;28;20519;-60
2021/04/09 07:58:33;;;;;;;17.63;10.23;;;4.10;82.60;;;;;;5042192;28;20182;-61
2021/04/09 08:01:00;;;;;;;12.10;6.70;;;4.30;82.30;;;;;;5044144;28;20452;-61
2021/04/09 08:03:37;;;;;;;22.03;6.87;;;4.60;82.60;;;;;;5038185;28;20450;-61
2021/04/09 08:06:06;;;;;;;9.50;5.73;;;4.80;83.00;;;;;;5034285;28;20456;-62
2021/04/09 08:08:32;;;;;;;9.60;5.47;;;5.00;82.60;;;;;;5039651;28;20500;-61
2021/04/09 08:11:18;;;;;;;7.10;4.27;;;5.20;78.70;;;;;;5035137;28;20544;-61
2021/04/09 08:13:44;;;;;;;6.70;5.10;;;5.40;73.40;;;;;;5027758;28;20241;-60
2021/04/09 08:16:28;;;;;;;12.70;5.93;;;5.50;67.00;;;;;;5048835;28;20429;-60
2021/04/09 08:19:17;;;;;;;11.10;5.03;;;5.70;61.90;;;;;;5036963;28;20429;-61
2021/04/09 08:21:49;;;;;;;13.70;5.60;;;5.80;57.60;;;;;;5042076;28;20454;-60
2021/04/09 08:24:15;;;;;;;10.07;5.00;;;6.00;56.50;;;;;;5036919;28;20455;-61
2021/04/09 08:26:41;;;;;;;11.40;6.10;;;6.10;55.20;;;;;;5039618;28;20996;-60
2021/04/09 08:29:10;;;;;;;8.17;5.13;;;6.30;55.40;;;;;;5037127;28;20444;-64
2021/04/09 08:31:37;;;;;;;9.40;5.23;;;6.40;55.30;;;;;;5039011;28;20449;-64
2021/04/09 08:34:03;;;;;;;8.47;4.67;;;6.60;55.00;;;;;;5041116;28;20441;-59
2021/04/09 08:36:30;;;;;;;10.23;5.00;;;6.80;52.90;;;;;;5041841;28;20441;-60
2021/04/09 08:38:56;;;;;;;11.40;6.20;;;7.00;53.00;;;;;;5043375;28;21021;-59
2021/04/09 08:41:22;;;;;;;7.47;6.00;;;7.10;52.60;;;;;;5038901;28;20479;-61
2021/04/09 08:43:48;;;;;;;9.23;5.20;;;7.40;52.80;;;;;;5040750;28;20461;-61
2021/04/09 08:46:15;;;;;;;7.00;4.87;;;7.60;52.00;;;;;;5038446;28;20513;-60
2021/04/09 08:48:42;;;;;;;12.83;5.17;;;7.80;51.20;;;;;;5043934;28;20433;-61
2021/04/09 08:51:09;;;;;;;13.90;5.23;;;7.90;49.80;;;;;;5040772;28;20457;-61
2021/04/09 08:53:35;;;;;;;7.17;5.00;;;8.00;48.80;;;;;;5039259;28;20489;-61
2021/04/09 08:56:02;;;;;;;9.73;5.50;;;8.10;48.00;;;;;;5043177;28;20449;-60
2021/04/09 08:58:30;;;;;;;11.60;5.50;;;8.30;48.00;;;;;;5039517;28;20171;-61
2021/04/09 09:01:08;;;;;;;6.03;4.63;;;8.40;47.20;;;;;;5042917;28;20450;-61
2021/04/09 09:03:34;;;;;;;9.07;4.80;;;8.50;46.30;;;;;;5034593;28;20507;-62
2021/04/09 09:06:02;;;;;;;9.57;3.93;;;8.70;46.20;;;;;;5043680;28;20433;-63
2021/04/09 09:08:50;;;;;;;7.43;3.33;;;8.90;45.50;;;;;;5047260;28;20171;-60
2021/04/09 09:11:49;;;;;;;6.77;4.17;;;9.00;43.80;;;;;;5038816;28;20445;-61
2021/04/09 09:14:33;;;;;;;5.70;3.87;;;9.20;43.40;;;;;;5035645;28;20448;-61
2021/04/09 09:17:19;;;;;;;7.07;4.20;;;9.30;42.60;;;;;;5039892;28;20541;-61
2021/04/09 09:19:49;;;;;;;13.60;4.30;;;9.50;42.10;;;;;;5043701;28;20426;-60
2021/04/09 09:22:21;;;;;;;5.60;4.07;;;9.60;41.70;;;;;;5036814;28;20458;-60
2021/04/09 09:25:13;;;;;;;16.37;4.97;;;9.80;42.10;;;;;;5041520;28;20422;-59
2021/04/09 09:27:50;;;;;;;6.40;3.80;;;10.00;40.20;;;;;;5035693;28;20473;-60
2021/04/09 09:30:39;;;;;;;6.83;3.53;;;10.20;39.40;;;;;;5037316;28;20690;-59
2021/04/09 09:33:25;;;;;;;7.53;4.27;;;10.30;39.10;;;;;;5042631;28;20437;-59
2021/04/09 09:36:03;;;;;;;7.70;4.20;;;10.30;37.60;;;;;;5042691;28;20429;-60
2021/04/09 09:38:52;;;;;;;14.03;4.10;;;10.40;37.80;;;;;;5040095;28;20433;-60
2021/04/09 09:41:44;;;;;;;8.70;4.37;;;10.40;37.80;;;;;;5051928;22;20495;-57
2021/04/09 09:44:32;;;;;;;4.77;3.70;;;10.50;37.70;;;;;;5060643;28;20606;-58
2021/04/09 09:46:59;;;;;;;8.27;4.20;;;10.60;37.60;;;;;;5053466;28;20921;-58
2021/04/09 09:49:27;;;;;;;5.73;3.70;;;10.60;37.30;;;;;;5053560;28;21063;-58
2021/04/09 09:51:53;;;;;;;6.47;3.37;;;10.60;36.50;;;;;;5050237;28;20499;-58
2021/04/09 09:54:32;;;;;;;4.67;3.30;;;10.60;35.70;;;;;;5054068;28;20447;-58
2021/04/09 09:57:18;;;;;;;4.43;3.60;;;10.60;35.30;;;;;;5056060;28;20174;-57
2021/04/09 09:59:44;;;;;;;9.27;4.37;;;10.70;35.80;;;;;;5056148;28;20441;-58
2021/04/09 10:02:19;;;;;;;6.23;3.80;;;10.70;35.80;;;;;;5055855;28;20464;-58
2021/04/09 10:04:51;;;;;;;9.20;3.10;;;10.80;35.90;;;;;;5054392;28;20475;-58
2021/04/09 10:07:21;;;;;;;5.30;3.37;;;11.00;34.70;;;;;;5044392;28;20435;-56
2021/04/09 10:09:52;;;;;;;4.70;3.10;;;11.20;33.80;;;;;;5055972;28;20499;-56
2021/04/09 10:12:22;;;;;;;3.93;3.10;;;11.50;32.90;;;;;;5054256;28;20461;-56
2021/04/09 10:14:52;;;;;;;11.13;3.33;;;11.70;31.60;;;;;;5059258;28;20439;-57
2021/04/09 10:17:18;;;;;;;4.63;2.73;;;11.90;32.10;;;;;;5058266;28;20555;-56
2021/04/09 10:20:05;;;;;;;5.60;3.37;;;12.20;31.30;;;;;;5055852;28;20465;-56
2021/04/09 10:22:31;;;;;;;4.87;3.03;;;12.50;31.50;;;;;;5044195;28;20455;-56
2021/04/09 10:24:57;;;;;;;7.70;4.60;;;12.60;29.50;;;;;;5079646;28;20434;-56
2021/04/09 10:27:23;;;;;;;12.63;5.60;;;12.70;30.80;;;;;;5059696;28;20516;-57
2021/04/09 10:29:49;;;;;;;7.90;3.57;;;12.80;32.30;;;;;;5056442;28;20497;-56
2021/04/09 10:32:20;;;;;;;5.40;3.73;;;12.90;30.60;;;;;;5054908;28;20506;-56
2021/04/09 10:34:48;;;;;;;6.00;4.30;;;12.90;29.50;;;;;;5055479;28;20182;-56
2021/04/09 10:37:24;;;;;;;5.40;3.33;;;13.00;31.00;;;;;;5062798;28;20412;-56
2021/04/09 10:39:51;;;;;;;3.97;2.90;;;13.00;31.70;;;;;;5055001;28;20462;-57
2021/04/09 10:42:17;;;;;;;8.73;4.03;;;13.10;32.10;;;;;;5056022;28;20540;-55
2021/04/09 10:44:44;;;;;;;7.97;3.47;;;13.10;30.00;;;;;;5058857;28;20883;-56
2021/04/09 10:47:10;;;;;;;5.80;3.60;;;13.00;29.80;;;;;;5058413;28;20437;-56
2021/04/09 10:49:44;;;;;;;5.00;3.87;;;13.00;29.40;;;;;;5059335;28;20459;-55
2021/04/09 10:52:16;;;;;;;5.80;3.97;;;13.10;30.30;;;;;;5061453;28;20944;-55
2021/04/09 10:54:44;;;;;;;7.20;3.80;;;13.30;30.50;;;;;;5059591;28;20436;-56
2021/04/09 10:57:15;;;;;;;8.20;3.60;;;13.40;29.80;;;;;;5058388;28;20486;-57
2021/04/09 10:59:42;;;;;;;8.73;4.13;;;13.40;30.20;;;;;;5056583;28;20464;-56
2021/04/09 11:02:11;;;;;;;9.07;4.60;;;13.30;30.10;;;;;;5058836;28;20954;-57
2021/04/09 11:04:38;;;;;;;5.57;3.93;;;13.20;31.00;;;;;;5055293;28;20426;-56
2021/04/09 11:07:06;;;;;;;6.23;4.00;;;13.20;31.20;;;;;;5058769;28;20678;-55
2021/04/09 11:09:45;;;;;;;10.13;4.30;;;13.20;32.00;;;;;;5056177;28;20435;-57
2021/04/09 11:12:21;;;;;;;7.50;3.70;;;13.30;32.00;;;;;;5040023;28;20460;-56
2021/04/09 11:14:49;;;;;;;5.10;3.90;;;13.30;30.00;;;;;;5056281;28;20837;-55
2021/04/09 11:17:28;;;;;;;7.10;3.90;;;13.20;29.50;;;;;;5056639;28;20491;-54
2021/04/09 11:19:57;;;;;;;13.80;4.47;;;13.10;29.90;;;;;;5054546;28;20427;-54
2021/04/09 11:22:25;;;;;;;7.20;4.17;;;13.10;30.60;;;;;;5054654;28;20570;-56
2021/04/09 11:25:01;;;;;;;6.00;3.93;;;13.10;31.70;;;;;;5054809;28;20432;-54
2021/04/09 11:27:33;;;;;;;9.80;4.33;;;13.00;32.60;;;;;;5058188;28;20428;-60
2021/04/09 11:30:15;;;;;;;6.67;4.07;;;13.10;31.30;;;;;;5054908;28;20538;-58
2021/04/09 11:32:47;;;;;;;5.20;3.47;;;13.10;31.60;;;;;;5059025;28;20498;-56
2021/04/09 11:35:14;;;;;;;6.83;4.33;;;13.20;31.40;;;;;;5046992;28;20443;-56
2021/04/09 11:37:44;;;;;;;9.73;3.80;;;13.40;31.10;;;;;;5079152;28;20545;-55
2021/04/09 11:40:12;;;;;;;8.30;5.10;;;13.60;31.10;;;;;;5051188;28;20426;-53
2021/04/09 11:42:38;;;;;;;8.13;4.63;;;13.90;31.90;;;;;;5053161;28;20465;-54
2021/04/09 11:45:07;;;;;;;7.47;4.20;;;14.40;31.90;;;;;;5058670;28;20545;-55
2021/04/09 11:47:32;;;;;;;9.40;4.70;;;14.80;31.00;;;;;;5070472;28;20252;-58
2021/04/09 11:50:13;;;;;;;13.30;4.57;;;15.10;30.50;;;;;;5059286;28;20471;-56
2021/04/09 11:52:56;;;;;;;5.67;3.50;;;15.40;29.70;;;;;;5054131;28;20202;-56
2021/04/09 11:55:34;;;;;;;8.63;4.20;;;15.60;28.40;;;;;;5053903;28;20463;-55
2021/04/09 11:58:01;;;;;;;7.20;3.80;;;15.80;28.10;;;;;;5053856;28;21033;-57
2021/04/09 12:00:31;;;;;;;13.80;4.60;;;15.90;27.00;;;;;;5053974;28;20445;-56
2021/04/09 12:03:01;;;;;;;5.37;3.83;;;15.90;26.50;;;;;;5052517;28;20475;-56
2021/04/09 12:05:28;;;;;;;3.67;3.30;;;15.90;26.80;;;;;;5057508;28;21205;-57
2021/04/09 12:07:58;;;;;;;10.77;4.20;;;16.00;26.50;;;;;;5059471;28;20456;-57
2021/04/09 12:10:26;;;;;;;10.57;3.90;;;16.00;26.30;;;;;;5055094;28;20449;-57
2021/04/09 12:12:52;;;;;;;7.23;2.73;;;16.20;27.20;;;;;;5071871;28;20892;-55
2021/04/09 12:15:20;;;;;;;6.80;3.60;;;16.30;25.30;;;;;;5051742;28;20448;-56
2021/04/09 12:17:46;;;;;;;5.80;3.90;;;16.30;24.90;;;;;;5054121;28;20444;-57
2021/04/09 12:20:15;;;;;;;4.63;2.80;;;16.30;23.70;;;;;;5055884;28;20428;-56
2021/04/09 12:22:41;;;;;;;6.87;3.40;;;16.30;24.40;;;;;;5054073;28;20214;-55
2021/04/09 12:25:09;;;;;;;4.10;3.07;;;16.40;25.00;;;;;;5055266;28;20482;-56
2021/04/09 12:27:36;;;;;;;9.50;3.03;;;16.40;24.00;;;;;;5067644;28;20461;-57
2021/04/09 12:30:05;;;;;;;4.60;2.80;;;16.30;22.50;;;;;;5054783;28;20456;-57
2021/04/09 12:32:30;;;;;;;7.43;4.10;;;16.30;22.80;;;;;;5056384;28;21017;-56
2021/04/09 12:34:56;;;;;;;5.90;3.27;;;16.50;23.10;;;;;;5054804;28;20433;-57
2021/04/09 12:37:22;;;;;;;7.10;3.50;;;16.70;22.40;;;;;;5060448;28;20760;-55
2021/04/09 12:39:48;;;;;;;6.03;3.20;;;16.70;22.50;;;;;;5056603;28;20577;-57
2021/04/09 12:42:14;;;;;;;4.13;3.10;;;16.70;22.40;;;;;;5053917;28;20215;-55
2021/04/09 12:44:40;;;;;;;7.50;3.17;;;16.70;22.00;;;;;;5065742;28;21019;-57
2021/04/09 12:47:05;;;;;;;5.73;2.93;;;16.70;21.70;;;;;;5052199;28;20446;-56
2021/04/09 12:49:31;;;;;;;6.27;2.90;;;16.70;22.20;;;;;;5050489;28;20651;-54
2021/04/09 12:51:57;;;;;;;4.73;4.00;;;16.70;20.60;;;;;;5047487;28;20202;-54
2021/04/09 12:54:23;;;;;;;4.60;3.03;;;16.70;21.00;;;;;;5047061;28;20775;-54